CST,Max TemperatureF,Mean TemperatureF,Min TemperatureF,Max Dew PointF,MeanDew PointF,Min DewpointF,Max Humidity, Mean Humidity, Min Humidity, Max Sea Level PressureIn, Mean Sea Level PressureIn, Min Sea Level PressureIn, Max VisibilityMiles, Mean VisibilityMiles, Min VisibilityMiles, Max Wind SpeedMPH, Mean Wind SpeedMPH, Max Gust SpeedMPH,PrecipitationIn, CloudCover, Events, WindDirDegrees
2012-11-1,41,34,28,36,26,21,93,77,64,30.14,30.10,30.04,10,10,10,21,14,30,0.00,4,,360
2012-11-2,33,30,28,30,26,21,93,80,74,30.17,30.13,30.10,10,10,10,8,4,,0.00,4,,78
2012-11-3,37,34,32,32,31,28,93,85,75,30.21,30.18,30.15,10,10,7,9,3,,0.00,8,,126
2012-11-4,37,35,33,32,32,32,93,86,81,30.21,30.18,30.14,10,10,7,7,2,,0.00,8,,87
2012-11-5,41,37,33,34,32,30,93,82,70,30.21,30.08,29.80,10,10,4,14,6,,0.07,8,,178
2012-11-6,42,38,33,36,33,32,93,80,66,30.04,29.89,29.76,10,10,3,26,14,37,0.01,7,,311
2012-11-7,46,36,26,34,31,23,93,78,57,30.11,30.00,29.84,10,10,10,20,7,24,0.00,1,,190
2012-11-8,44,38,32,36,32,30,93,83,70,30.10,29.95,29.81,10,10,10,21,13,26,0.00,4,,29
2012-11-9,41,36,32,34,32,30,93,82,70,30.10,30.01,29.85,10,10,10,20,13,24,0.00,8,,61
2012-11-10,41,36,32,39,37,32,100,90,76,29.84,29.60,29.45,10,3,1,24,12,29,0.04,8,,61
2012-11-11,32,26,19,30,17,12,93,77,68,29.88,29.80,29.59,10,10,5,28,20,33,0.00,8,,281
2012-11-12,24,19,14,16,12,9,86,77,63,30.23,30.07,29.88,10,10,2,23,15,28,0.00,5,,286
2012-11-13,35,24,14,28,21,10,93,83,69,30.25,30.22,30.20,10,10,10,9,5,,0.00,3,,155
2012-11-14,46,34,23,32,28,21,100,85,57,30.22,30.14,30.05,10,9,0,12,3,,0.00,1,,167
2012-11-15,33,27,19,28,22,16,93,77,56,30.49,30.33,30.07,10,10,10,17,6,28,0.00,0,,335
2012-11-16,41,29,17,27,19,14,86,69,42,30.49,30.30,30.09,10,10,10,23,11,30,0.00,0,,150
2012-11-17,50,41,32,36,32,28,93,75,58,30.11,30.06,30.00,10,10,10,16,11,18,0.00,1,,139
2012-11-18,53,42,32,36,34,30,93,72,51,30.00,29.96,29.92,10,10,10,17,10,17,0.00,1,,152
2012-11-19,50,38,23,36,32,21,100,78,54,30.16,30.03,29.91,10,9,5,13,9,18,0.00,0,,326
2012-11-20,50,36,21,36,29,19,100,73,47,30.17,30.04,29.91,10,7,0,16,6,17,0.00,2,,151
2012-11-21,59,44,28,36,32,25,93,71,42,29.91,29.76,29.54,10,10,10,16,6,,0.00,0,,142
2012-11-22,41,30,19,34,26,12,93,83,70,30.23,29.86,29.54,10,8,2,33,13,38,0.00,6,,323
2012-11-23,19,14,6,14,9,3,85,77,68,30.48,30.41,30.24,10,9,3,30,18,40,0.00,7,,328
2012-11-24,32,19,6,27,14,3,92,78,68,30.36,30.01,29.79,10,10,10,20,7,26,0.00,6,,153
2012-11-25,32,21,10,23,17,5,85,75,60,30.30,30.04,29.89,10,10,7,23,15,29,0.00,8,,334
2012-11-26,23,13,3,9,5,-2,85,70,46,30.46,30.35,30.23,10,10,10,12,7,17,0.00,1,,265
2012-11-27,32,24,15,23,18,9,86,75,64,30.27,30.16,30.11,10,10,10,13,7,17,0.00,4,,326
2012-11-28,37,29,21,27,23,19,93,76,60,30.29,30.16,30.02,10,10,7,17,6,22,0.00,3,,182
2012-11-29,30,24,19,25,22,18,100,85,75,30.15,30.10,30.06,10,8,2,17,10,20,0.00,7,,40
2012-11-30,33,28,24,32,26,21,93,86,80,30.15,30.05,29.83,10,6,4,22,9,29,0.00,7,,139